sensor_id;sensor_type;location;lat;lon;timestamp;pressure;altitude;pressure_sealevel;temperature;humidity
16690;BME280;8458;52.220;9.884;2023-04-06T00:02:15;101184.00;;;3.82;63.38
16690;BME280;8458;52.220;9.884;2023-04-06T00:04:42;101184.63;;;3.77;63.15
16690;BME280;8458;52.220;9.884;2023-04-06T00:07:08;101183.53;;;3.58;63.70
16690;BME280;8458;52.220;9.884;2023-04-06T00:09:35;101178.88;;;3.59;63.45
16690;BME280;8458;52.220;9.884;2023-04-06T00:12:01;101174.88;;;3.55;63.45
16690;BME280;8458;52.220;9.884;2023-04-06T00:14:28;101174.88;;;3.55;63.64
16690;BME280;8458;52.220;9.884;2023-04-06T00:16:56;101175.50;;;3.50;63.86
16690;BME280;8458;52.220;9.884;2023-04-06T00:19:23;101176.13;;;3.46;63.83
16690;BME280;8458;52.220;9.884;2023-04-06T00:21:49;101165.16;;;3.52;63.71
16690;BME280;8458;52.220;9.884;2023-04-06T00:24:16;101167.47;;;3.49;63.40
16690;BME280;8458;52.220;9.884;2023-04-06T00:26:42;101165.31;;;3.37;63.73
16690;BME280;8458;52.220;9.884;2023-04-06T00:29:09;101160.50;;;3.39;63.35
16690;BME280;8458;52.220;9.884;2023-04-06T00:31:35;101160.72;;;3.45;63.71
16690;BME280;8458;52.220;9.884;2023-04-06T00:34:05;101162.16;;;3.40;63.55
16690;BME280;8458;52.220;9.884;2023-04-06T00:36:32;101158.78;;;3.38;63.85
16690;BME280;8458;52.220;9.884;2023-04-06T00:38:58;101156.88;;;3.39;63.55
16690;BME280;8458;52.220;9.884;2023-04-06T00:41:25;101152.22;;;3.33;63.64
16690;BME280;8458;52.220;9.884;2023-04-06T00:43:53;101155.78;;;3.20;64.16
16690;BME280;8458;52.220;9.884;2023-04-06T00:46:19;101157.47;;;3.21;64.35
16690;BME280;8458;52.220;9.884;2023-04-06T00:48:46;101159.34;;;3.20;64.65
16690;BME280;8458;52.220;9.884;2023-04-06T00:51:14;101150.69;;;3.17;64.78
16690;BME280;8458;52.220;9.884;2023-04-06T00:53:40;101152.41;;;3.18;64.20
16690;BME280;8458;52.220;9.884;2023-04-06T00:56:07;101159.75;;;3.17;64.49
16690;BME280;8458;52.220;9.884;2023-04-06T00:58:35;101151.09;;;3.14;64.27
16690;BME280;8458;52.220;9.884;2023-04-06T01:01:03;101147.28;;;3.08;64.49
16690;BME280;8458;52.220;9.884;2023-04-06T01:03:29;101140.97;;;3.08;64.24
16690;BME280;8458;52.220;9.884;2023-04-06T01:05:56;101148.09;;;3.02;64.25
16690;BME280;8458;52.220;9.884;2023-04-06T01:08:25;101142.59;;;2.95;64.40
16690;BME280;8458;52.220;9.884;2023-04-06T01:10:51;101137.13;;;3.02;64.68
16690;BME280;8458;52.220;9.884;2023-04-06T01:13:18;101134.16;;;2.97;65.01
16690;BME280;8458;52.220;9.884;2023-04-06T01:15:45;101132.44;;;2.89;64.90
16690;BME280;8458;52.220;9.884;2023-04-06T01:18:12;101130.09;;;2.86;64.76
16690;BME280;8458;52.220;9.884;2023-04-06T01:20:39;101132.25;;;2.91;65.13
16690;BME280;8458;52.220;9.884;2023-04-06T01:23:06;101130.34;;;2.91;64.27
16690;BME280;8458;52.220;9.884;2023-04-06T01:25:33;101125.47;;;2.86;64.51
16690;BME280;8458;52.220;9.884;2023-04-06T01:28:00;101132.84;;;2.86;64.76
16690;BME280;8458;52.220;9.884;2023-04-06T01:30:26;101128.19;;;2.86;64.91
16690;BME280;8458;52.220;9.884;2023-04-06T01:32:53;101124.19;;;2.82;65.32
16690;BME280;8458;52.220;9.884;2023-04-06T01:35:19;101118.25;;;2.79;65.67
16690;BME280;8458;52.220;9.884;2023-04-06T01:37:46;101118.91;;;2.81;65.74
16690;BME280;8458;52.220;9.884;2023-04-06T01:40:14;101126.69;;;2.77;65.80
16690;BME280;8458;52.220;9.884;2023-04-06T01:42:41;101126.47;;;2.79;65.96
16690;BME280;8458;52.220;9.884;2023-04-06T01:45:08;101123.31;;;2.75;66.12
16690;BME280;8458;52.220;9.884;2023-04-06T01:47:35;101115.53;;;2.79;66.26
16690;BME280;8458;52.220;9.884;2023-04-06T01:50:01;101114.69;;;2.78;65.99
16690;BME280;8458;52.220;9.884;2023-04-06T01:52:31;101112.56;;;2.74;66.08
16690;BME280;8458;52.220;9.884;2023-04-06T01:54:57;101128.09;;;2.66;66.29
16690;BME280;8458;52.220;9.884;2023-04-06T01:57:25;101116.72;;;2.69;66.58
16690;BME280;8458;52.220;9.884;2023-04-06T01:59:52;101119.25;;;2.64;66.38
16690;BME280;8458;52.220;9.884;2023-04-06T02:02:19;101119.66;;;2.61;66.52
16690;BME280;8458;52.220;9.884;2023-04-06T02:04:45;101109.13;;;2.65;66.89
16690;BME280;8458;52.220;9.884;2023-04-06T02:07:12;101120.53;;;2.68;66.96
16690;BME280;8458;52.220;9.884;2023-04-06T02:09:38;101117.19;;;2.73;66.83
16690;BME280;8458;52.220;9.884;2023-04-06T02:12:05;101115.28;;;2.74;67.43
16690;BME280;8458;52.220;9.884;2023-04-06T02:14:33;101121.38;;;2.69;66.96
16690;BME280;8458;52.220;9.884;2023-04-06T02:17:00;101113.75;;;2.58;67.01
16690;BME280;8458;52.220;9.884;2023-04-06T02:19:26;101117.31;;;2.58;67.41
16690;BME280;8458;52.220;9.884;2023-04-06T02:21:53;101116.88;;;2.55;67.41
16690;BME280;8458;52.220;9.884;2023-04-06T02:24:20;101114.75;;;2.50;67.35
16690;BME280;8458;52.220;9.884;2023-04-06T02:26:46;101112.41;;;2.47;67.70
16690;BME280;8458;52.220;9.884;2023-04-06T02:29:13;101114.09;;;2.48;67.43
16690;BME280;8458;52.220;9.884;2023-04-06T02:31:40;101112.63;;;2.52;67.85
16690;BME280;8458;52.220;9.884;2023-04-06T02:34:07;101108.53;;;2.35;67.95
16690;BME280;8458;52.220;9.884;2023-04-06T02:36:36;101114.72;;;2.43;67.95
16690;BME280;8458;52.220;9.884;2023-04-06T02:39:03;101105.69;;;2.49;67.54
16690;BME280;8458;52.220;9.884;2023-04-06T02:41:29;101107.34;;;2.44;68.08
16690;BME280;8458;52.220;9.884;2023-04-06T02:43:56;101104.19;;;2.47;68.37
16690;BME280;8458;52.220;9.884;2023-04-06T02:46:23;101104.78;;;2.42;69.06
16690;BME280;8458;52.220;9.884;2023-04-06T02:48:50;101099.91;;;2.38;68.93
16690;BME280;8458;52.220;9.884;2023-04-06T02:51:17;101095.97;;;2.47;68.71
16690;BME280;8458;52.220;9.884;2023-04-06T02:53:43;101105.00;;;2.41;68.96
16690;BME280;8458;52.220;9.884;2023-04-06T02:56:10;101098.22;;;2.37;68.38
16690;BME280;8458;52.220;9.884;2023-04-06T02:58:37;101093.41;;;2.39;68.68
16690;BME280;8458;52.220;9.884;2023-04-06T03:01:03;101097.41;;;2.43;68.40
16690;BME280;8458;52.220;9.884;2023-04-06T03:03:30;101091.53;;;2.46;68.53
16690;BME280;8458;52.220;9.884;2023-04-06T03:05:58;101098.53;;;2.48;67.98
16690;BME280;8458;52.220;9.884;2023-04-06T03:08:25;101095.56;;;2.50;68.08
16690;BME280;8458;52.220;9.884;2023-04-06T03:10:52;101087.59;;;2.55;68.15
16690;BME280;8458;52.220;9.884;2023-04-06T03:13:18;101088.47;;;2.56;68.05
16690;BME280;8458;52.220;9.884;2023-04-06T03:15:45;101079.78;;;2.52;68.21
16690;BME280;8458;52.220;9.884;2023-04-06T03:18:12;101090.41;;;2.33;68.21
16690;BME280;8458;52.220;9.884;2023-04-06T03:20:39;101089.56;;;2.33;68.00
16690;BME280;8458;52.220;9.884;2023-04-06T03:23:07;101090.41;;;2.33;68.34
16690;BME280;8458;52.220;9.884;2023-04-06T03:25:33;101085.09;;;2.25;68.17
16690;BME280;8458;52.220;9.884;2023-04-06T03:28:00;101089.28;;;2.21;68.62
16690;BME280;8458;52.220;9.884;2023-04-06T03:30:26;101090.28;;;2.13;68.80
16690;BME280;8458;52.220;9.884;2023-04-06T03:32:53;101085.66;;;2.14;68.76
16690;BME280;8458;52.220;9.884;2023-04-06T03:35:19;101089.41;;;2.06;68.72
16690;BME280;8458;52.220;9.884;2023-04-06T03:37:46;101094.41;;;2.03;69.00
16690;BME280;8458;52.220;9.884;2023-04-06T03:40:14;101087.28;;;2.08;68.40
16690;BME280;8458;52.220;9.884;2023-04-06T03:42:40;101081.13;;;2.00;68.87
16690;BME280;8458;52.220;9.884;2023-04-06T03:45:08;101084.72;;;2.00;68.50
16690;BME280;8458;52.220;9.884;2023-04-06T03:47:35;101087.09;;;2.10;68.76
16690;BME280;8458;52.220;9.884;2023-04-06T03:50:02;101092.56;;;2.10;68.77
16690;BME280;8458;52.220;9.884;2023-04-06T03:52:28;101083.97;;;2.13;68.81
16690;BME280;8458;52.220;9.884;2023-04-06T03:54:55;101089.59;;;2.05;68.41
16690;BME280;8458;52.220;9.884;2023-04-06T03:57:23;101090.19;;;2.00;68.49
16690;BME280;8458;52.220;9.884;2023-04-06T03:59:50;101087.97;;;1.89;68.46
16690;BME280;8458;52.220;9.884;2023-04-06T04:02:16;101089.66;;;1.90;68.73
16690;BME280;8458;52.220;9.884;2023-04-06T04:04:43;101091.06;;;1.79;68.33
16690;BME280;8458;52.220;9.884;2023-04-06T04:07:09;101090.41;;;1.77;68.43
16690;BME280;8458;52.220;9.884;2023-04-06T04:09:36;101091.84;;;1.73;68.70
16690;BME280;8458;52.220;9.884;2023-04-06T04:12:03;101093.00;;;1.64;68.33
16690;BME280;8458;52.220;9.884;2023-04-06T04:14:31;101090.28;;;1.64;68.63
16690;BME280;8458;52.220;9.884;2023-04-06T04:16:58;101100.81;;;1.67;68.67
16690;BME280;8458;52.220;9.884;2023-04-06T04:19:24;101100.03;;;1.73;69.10
16690;BME280;8458;52.220;9.884;2023-04-06T04:21:51;101099.66;;;1.76;68.92
16690;BME280;8458;52.220;9.884;2023-04-06T04:24:17;101095.09;;;1.83;68.98
16690;BME280;8458;52.220;9.884;2023-04-06T04:26:44;101102.63;;;1.81;68.63
16690;BME280;8458;52.220;9.884;2023-04-06T04:29:10;101101.34;;;1.77;68.33
16690;BME280;8458;52.220;9.884;2023-04-06T04:31:39;101102.78;;;1.73;68.77
16690;BME280;8458;52.220;9.884;2023-04-06T04:34:05;101099.22;;;1.72;68.70
16690;BME280;8458;52.220;9.884;2023-04-06T04:36:33;101098.34;;;1.72;68.94
16690;BME280;8458;52.220;9.884;2023-04-06T04:38:59;101096.28;;;1.74;68.82
16690;BME280;8458;52.220;9.884;2023-04-06T04:41:26;101100.00;;;1.66;69.18
16690;BME280;8458;52.220;9.884;2023-04-06T04:43:53;101097.06;;;1.68;68.92
16690;BME280;8458;52.220;9.884;2023-04-06T04:46:20;101097.31;;;1.73;69.15
16690;BME280;8458;52.220;9.884;2023-04-06T04:48:48;101099.25;;;1.79;69.07
16690;BME280;8458;52.220;9.884;2023-04-06T04:51:15;101101.66;;;1.67;69.07
16690;BME280;8458;52.220;9.884;2023-04-06T04:53:41;101101.06;;;1.72;69.03
16690;BME280;8458;52.220;9.884;2023-04-06T04:56:08;101099.66;;;1.76;68.90
16690;BME280;8458;52.220;9.884;2023-04-06T04:58:34;101098.72;;;1.69;69.65
16690;BME280;8458;52.220;9.884;2023-04-06T05:01:01;101107.13;;;1.67;69.81
16690;BME280;8458;52.220;9.884;2023-04-06T05:03:28;101110.25;;;1.64;69.96
16690;BME280;8458;52.220;9.884;2023-04-06T05:05:56;101101.47;;;1.69;70.00
16690;BME280;8458;52.220;9.884;2023-04-06T05:08:22;101095.34;;;1.67;70.03
16690;BME280;8458;52.220;9.884;2023-04-06T05:10:49;101101.59;;;1.60;69.37
16690;BME280;8458;52.220;9.884;2023-04-06T05:13:16;101099.66;;;1.54;69.85
16690;BME280;8458;52.220;9.884;2023-04-06T05:15:42;101106.63;;;1.57;70.02
16690;BME280;8458;52.220;9.884;2023-04-06T05:18:09;101096.19;;;1.67;70.23
16690;BME280;8458;52.220;9.884;2023-04-06T05:20:38;101100.44;;;1.70;69.57
16690;BME280;8458;52.220;9.884;2023-04-06T05:23:06;101087.94;;;1.60;70.07
16690;BME280;8458;52.220;9.884;2023-04-06T05:25:32;101105.91;;;1.70;70.06
16690;BME280;8458;52.220;9.884;2023-04-06T05:27:59;101101.47;;;1.69;70.20
16690;BME280;8458;52.220;9.884;2023-04-06T05:30:26;101095.59;;;1.72;70.02
16690;BME280;8458;52.220;9.884;2023-04-06T05:32:52;101090.41;;;1.77;70.35
16690;BME280;8458;52.220;9.884;2023-04-06T05:35:19;101091.56;;;1.89;69.92
16690;BME280;8458;52.220;9.884;2023-04-06T05:37:45;101098.06;;;1.88;69.95
16690;BME280;8458;52.220;9.884;2023-04-06T05:40:13;101095.19;;;1.96;69.64
16690;BME280;8458;52.220;9.884;2023-04-06T05:42:42;101095.59;;;1.93;70.01
16690;BME280;8458;52.220;9.884;2023-04-06T05:45:09;101097.69;;;1.91;69.95
16690;BME280;8458;52.220;9.884;2023-04-06T05:47:41;101095.59;;;1.93;70.18
16690;BME280;8458;52.220;9.884;2023-04-06T05:50:09;101085.94;;;1.97;70.43
16690;BME280;8458;52.220;9.884;2023-04-06T05:52:35;101099.06;;;2.09;70.50
16690;BME280;8458;52.220;9.884;2023-04-06T05:55:02;101101.91;;;2.22;69.70
16690;BME280;8458;52.220;9.884;2023-04-06T05:57:30;101098.75;;;2.19;70.18
16690;BME280;8458;52.220;9.884;2023-04-06T05:59:57;101091.59;;;2.24;70.24
16690;BME280;8458;52.220;9.884;2023-04-06T06:02:23;101090.41;;;2.33;69.85
16690;BME280;8458;52.220;9.884;2023-04-06T06:04:50;101096.28;;;2.30;69.90
16690;BME280;8458;52.220;9.884;2023-04-06T06:07:17;101084.47;;;2.23;70.09
16690;BME280;8458;52.220;9.884;2023-04-06T06:09:43;101082.78;;;2.22;70.59
16690;BME280;8458;52.220;9.884;2023-04-06T06:12:10;101094.22;;;2.32;70.49
16690;BME280;8458;52.220;9.884;2023-04-06T06:14:38;101089.22;;;2.43;70.67
16690;BME280;8458;52.220;9.884;2023-04-06T06:17:05;101088.88;;;2.53;70.84
16690;BME280;8458;52.220;9.884;2023-04-06T06:19:31;101091.00;;;2.57;70.32
16690;BME280;8458;52.220;9.884;2023-04-06T06:21:58;101077.53;;;2.62;70.21
16690;BME280;8458;52.220;9.884;2023-04-06T06:24:26;101085.13;;;2.67;70.93
16690;BME280;8458;52.220;9.884;2023-04-06T06:26:53;101088.31;;;2.71;70.67
16690;BME280;8458;52.220;9.884;2023-04-06T06:29:20;101085.38;;;2.79;70.71
16690;BME280;8458;52.220;9.884;2023-04-06T06:31:47;101083.13;;;2.89;70.58
16690;BME280;8458;52.220;9.884;2023-04-06T06:34:14;101091.81;;;2.99;70.02
16690;BME280;8458;52.220;9.884;2023-04-06T06:36:41;101087.84;;;3.09;70.13
16690;BME280;8458;52.220;9.884;2023-04-06T06:39:07;101088.28;;;3.19;69.76
16690;BME280;8458;52.220;9.884;2023-04-06T06:41:34;101084.56;;;3.33;69.90
16690;BME280;8458;52.220;9.884;2023-04-06T06:44:01;101085.81;;;3.37;69.64
16690;BME280;8458;52.220;9.884;2023-04-06T06:46:27;101092.78;;;3.47;68.01
16690;BME280;8458;52.220;9.884;2023-04-06T06:48:55;101088.38;;;3.59;67.08
16690;BME280;8458;52.220;9.884;2023-04-06T06:51:22;101090.09;;;3.67;67.36
16690;BME280;8458;52.220;9.884;2023-04-06T06:53:48;101085.47;;;3.74;68.00
16690;BME280;8458;52.220;9.884;2023-04-06T06:56:15;101080.19;;;3.79;67.73
16690;BME280;8458;52.220;9.884;2023-04-06T06:58:41;101085.25;;;3.89;67.29
16690;BME280;8458;52.220;9.884;2023-04-06T07:01:08;101080.19;;;3.99;68.01
16690;BME280;8458;52.220;9.884;2023-04-06T07:03:34;101079.34;;;4.05;68.14
16690;BME280;8458;52.220;9.884;2023-04-06T07:06:03;101079.09;;;4.13;68.73
16690;BME280;8458;52.220;9.884;2023-04-06T07:08:29;101079.53;;;4.24;69.05
16690;BME280;8458;52.220;9.884;2023-04-06T07:10:56;101073.59;;;4.34;69.64
16690;BME280;8458;52.220;9.884;2023-04-06T07:13:23;101067.25;;;4.46;69.13
16690;BME280;8458;52.220;9.884;2023-04-06T07:15:50;101071.41;;;4.62;68.79
16690;BME280;8458;52.220;9.884;2023-04-06T07:18:17;101070.09;;;4.78;66.90
16690;BME280;8458;52.220;9.884;2023-04-06T07:20:44;101075.13;;;4.95;66.05
16690;BME280;8458;52.220;9.884;2023-04-06T07:23:12;101076.94;;;5.14;66.82
16690;BME280;8458;52.220;9.884;2023-04-06T07:25:39;101075.34;;;5.32;65.67
16690;BME280;8458;52.220;9.884;2023-04-06T07:28:05;101074.59;;;5.50;65.62
16690;BME280;8458;52.220;9.884;2023-04-06T07:30:32;101073.03;;;5.61;60.06
16690;BME280;8458;52.220;9.884;2023-04-06T07:32:58;101071.00;;;5.81;59.70
16690;BME280;8458;52.220;9.884;2023-04-06T07:35:26;101066.66;;;5.99;59.57
16690;BME280;8458;52.220;9.884;2023-04-06T07:37:55;101068.84;;;6.15;58.33
16690;BME280;8458;52.220;9.884;2023-04-06T07:40:23;101075.44;;;6.33;56.25
16690;BME280;8458;52.220;9.884;2023-04-06T07:42:51;101066.59;;;6.49;54.76
16690;BME280;8458;52.220;9.884;2023-04-06T07:45:18;101072.09;;;6.68;56.40
16690;BME280;8458;52.220;9.884;2023-04-06T07:47:44;101068.97;;;6.82;54.77
16690;BME280;8458;52.220;9.884;2023-04-06T07:50:11;101066.88;;;6.96;53.64
16690;BME280;8458;52.220;9.884;2023-04-06T07:52:38;101060.72;;;7.13;52.92
16690;BME280;8458;52.220;9.884;2023-04-06T07:55:05;101064.53;;;7.30;53.58
16690;BME280;8458;52.220;9.884;2023-04-06T07:57:33;101061.34;;;7.45;52.79
16690;BME280;8458;52.220;9.884;2023-04-06T08:00:00;101056.47;;;7.59;50.90
16690;BME280;8458;52.220;9.884;2023-04-06T08:02:27;101055.06;;;7.68;50.20
16690;BME280;8458;52.220;9.884;2023-04-06T08:04:54;101064.19;;;7.81;50.00
16690;BME280;8458;52.220;9.884;2023-04-06T08:07:20;101052.91;;;7.94;49.59
16690;BME280;8458;52.220;9.884;2023-04-06T08:09:47;101060.97;;;8.07;49.75
16690;BME280;8458;52.220;9.884;2023-04-06T08:12:14;101053.31;;;8.21;48.99
16690;BME280;8458;52.220;9.884;2023-04-06T08:14:41;101046.69;;;8.34;49.12
16690;BME280;8458;52.220;9.884;2023-04-06T08:17:08;101052.84;;;8.48;48.75
16690;BME280;8458;52.220;9.884;2023-04-06T08:19:35;101051.72;;;8.61;48.58
16690;BME280;8458;52.220;9.884;2023-04-06T08:22:02;101056.41;;;8.72;47.91
16690;BME280;8458;52.220;9.884;2023-04-06T08:24:29;101052.88;;;8.89;48.09
16690;BME280;8458;52.220;9.884;2023-04-06T08:26:57;101043.22;;;9.03;47.70
16690;BME280;8458;52.220;9.884;2023-04-06T08:29:24;101049.44;;;9.10;47.46
16690;BME280;8458;52.220;9.884;2023-04-06T08:31:52;101051.34;;;9.22;47.78
16690;BME280;8458;52.220;9.884;2023-04-06T08:34:19;101045.41;;;9.30;46.66
16690;BME280;8458;52.220;9.884;2023-04-06T08:36:45;101048.34;;;9.40;46.77
16690;BME280;8458;52.220;9.884;2023-04-06T08:39:12;101043.69;;;9.58;45.53
16690;BME280;8458;52.220;9.884;2023-04-06T08:41:41;101046.22;;;9.59;45.20
16690;BME280;8458;52.220;9.884;2023-04-06T08:44:08;101046.56;;;9.63;45.76
16690;BME280;8458;52.220;9.884;2023-04-06T08:46:35;101040.44;;;9.78;45.65
16690;BME280;8458;52.220;9.884;2023-04-06T08:49:03;101042.03;;;9.91;45.50
16690;BME280;8458;52.220;9.884;2023-04-06T08:51:32;101039.59;;;10.11;44.36
16690;BME280;8458;52.220;9.884;2023-04-06T08:53:59;101036.47;;;10.25;46.00
16690;BME280;8458;52.220;9.884;2023-04-06T08:56:27;101036.66;;;10.35;43.70
16690;BME280;8458;52.220;9.884;2023-04-06T08:58:55;101042.34;;;10.45;44.35
16690;BME280;8458;52.220;9.884;2023-04-06T09:01:25;101038.28;;;10.53;43.19
16690;BME280;8458;52.220;9.884;2023-04-06T09:03:55;101039.53;;;10.62;42.42
16690;BME280;8458;52.220;9.884;2023-04-06T09:06:24;101029.47;;;10.78;44.22
16690;BME280;8458;52.220;9.884;2023-04-06T09:08:53;101027.22;;;10.97;43.59
16690;BME280;8458;52.220;9.884;2023-04-06T09:11:20;101019.34;;;11.11;43.73
16690;BME280;8458;52.220;9.884;2023-04-06T09:13:47;101028.94;;;11.25;42.73
16690;BME280;8458;52.220;9.884;2023-04-06T09:16:14;101032.91;;;11.35;42.43
16690;BME280;8458;52.220;9.884;2023-04-06T09:18:41;101035.38;;;11.31;41.13
16690;BME280;8458;52.220;9.884;2023-04-06T09:21:09;101030.69;;;11.37;40.97
16690;BME280;8458;52.220;9.884;2023-04-06T09:23:37;101028.88;;;11.47;41.75
16690;BME280;8458;52.220;9.884;2023-04-06T09:26:06;101025.97;;;11.64;42.31
16690;BME280;8458;52.220;9.884;2023-04-06T09:28:43;101024.91;;;11.71;41.93
16690;BME280;8458;52.220;9.884;2023-04-06T09:31:10;101025.03;;;11.81;42.22
16690;BME280;8458;52.220;9.884;2023-04-06T09:33:38;101020.06;;;11.88;41.39
16690;BME280;8458;52.220;9.884;2023-04-06T09:36:06;101019.53;;;11.91;39.84
16690;BME280;8458;52.220;9.884;2023-04-06T09:38:32;101022.41;;;11.96;40.96
16690;BME280;8458;52.220;9.884;2023-04-06T09:41:00;101024.13;;;12.08;41.29
16690;BME280;8458;52.220;9.884;2023-04-06T09:43:27;101016.38;;;12.10;40.79
16690;BME280;8458;52.220;9.884;2023-04-06T09:45:55;101024.75;;;12.15;38.93
16690;BME280;8458;52.220;9.884;2023-04-06T09:48:22;101021.44;;;12.18;38.18
16690;BME280;8458;52.220;9.884;2023-04-06T09:50:53;101015.28;;;12.16;38.20
16690;BME280;8458;52.220;9.884;2023-04-06T09:53:26;101018.59;;;12.13;38.24
16690;BME280;8458;52.220;9.884;2023-04-06T09:56:03;101020.25;;;12.09;37.60
16690;BME280;8458;52.220;9.884;2023-04-06T09:58:36;101011.97;;;12.19;37.66
16690;BME280;8458;52.220;9.884;2023-04-06T10:01:07;100996.41;;;12.18;37.47
16690;BME280;8458;52.220;9.884;2023-04-06T10:03:44;101006.22;;;12.31;37.11
16690;BME280;8458;52.220;9.884;2023-04-06T10:06:13;101002.81;;;12.18;36.51
16690;BME280;8458;52.220;9.884;2023-04-06T10:08:42;100997.31;;;12.29;37.66
16690;BME280;8458;52.220;9.884;2023-04-06T10:11:14;100999.31;;;12.33;37.05
16690;BME280;8458;52.220;9.884;2023-04-06T10:13:41;100990.19;;;12.48;37.83
16690;BME280;8458;52.220;9.884;2023-04-06T10:16:09;100998.59;;;12.59;37.72
16690;BME280;8458;52.220;9.884;2023-04-06T10:18:38;100993.38;;;12.72;37.31
16690;BME280;8458;52.220;9.884;2023-04-06T10:21:08;100992.56;;;12.77;35.58
16690;BME280;8458;52.220;9.884;2023-04-06T10:23:40;100995.66;;;12.86;36.23
16690;BME280;8458;52.220;9.884;2023-04-06T10:26:14;100993.72;;;12.91;36.28
16690;BME280;8458;52.220;9.884;2023-04-06T10:28:42;100992.34;;;12.99;36.36
16690;BME280;8458;52.220;9.884;2023-04-06T10:31:09;101000.69;;;12.99;35.68
16690;BME280;8458;52.220;9.884;2023-04-06T10:33:36;100993.78;;;13.12;35.71
16690;BME280;8458;52.220;9.884;2023-04-06T10:36:11;100993.25;;;13.15;36.48
16690;BME280;8458;52.220;9.884;2023-04-06T10:38:39;100988.50;;;13.26;37.70
16690;BME280;8458;52.220;9.884;2023-04-06T10:41:07;100990.19;;;13.32;37.11
16690;BME280;8458;52.220;9.884;2023-04-06T10:43:37;100990.25;;;13.42;36.48
16690;BME280;8458;52.220;9.884;2023-04-06T10:46:05;100989.97;;;13.44;35.90
16690;BME280;8458;52.220;9.884;2023-04-06T10:48:40;100986.34;;;13.33;35.97
16690;BME280;8458;52.220;9.884;2023-04-06T10:51:08;100988.81;;;13.30;35.70
16690;BME280;8458;52.220;9.884;2023-04-06T10:53:40;100990.53;;;13.41;35.93
16690;BME280;8458;52.220;9.884;2023-04-06T10:56:09;100989.97;;;13.44;36.92
16690;BME280;8458;52.220;9.884;2023-04-06T10:58:43;100979.94;;;13.53;37.19
16690;BME280;8458;52.220;9.884;2023-04-06T11:01:10;100984.13;;;13.45;36.19
16690;BME280;8458;52.220;9.884;2023-04-06T11:03:42;100977.38;;;13.26;37.05
16690;BME280;8458;52.220;9.884;2023-04-06T11:06:09;100969.06;;;13.41;37.86
16690;BME280;8458;52.220;9.884;2023-04-06T11:08:36;100984.13;;;13.51;36.57
16690;BME280;8458;52.220;9.884;2023-04-06T11:11:07;100975.22;;;13.59;35.95
16690;BME280;8458;52.220;9.884;2023-04-06T11:13:41;100977.16;;;13.74;35.77
16690;BME280;8458;52.220;9.884;2023-04-06T11:16:12;100973.25;;;13.75;36.10
16690;BME280;8458;52.220;9.884;2023-04-06T11:18:47;100957.34;;;14.01;36.89
16690;BME280;8458;52.220;9.884;2023-04-06T11:21:14;100970.47;;;14.01;36.95
16690;BME280;8458;52.220;9.884;2023-04-06T11:23:40;100966.53;;;14.02;36.63
16690;BME280;8458;52.220;9.884;2023-04-06T11:26:10;100972.38;;;14.15;37.11
16690;BME280;8458;52.220;9.884;2023-04-06T11:28:37;100971.56;;;14.10;36.33
16690;BME280;8458;52.220;9.884;2023-04-06T11:31:05;100956.75;;;14.25;35.72
16690;BME280;8458;52.220;9.884;2023-04-06T11:33:35;100963.97;;;14.31;36.05
16690;BME280;8458;52.220;9.884;2023-04-06T11:36:02;100966.19;;;14.39;35.43
16690;BME280;8458;52.220;9.884;2023-04-06T11:38:29;100960.31;;;14.46;35.25
16690;BME280;8458;52.220;9.884;2023-04-06T11:40:56;100959.69;;;14.59;34.52
16690;BME280;8458;52.220;9.884;2023-04-06T11:43:26;100959.75;;;14.49;34.56
16690;BME280;8458;52.220;9.884;2023-04-06T11:45:59;100954.97;;;14.60;34.22
16690;BME280;8458;52.220;9.884;2023-04-06T11:48:28;100956.63;;;14.61;34.74
16690;BME280;8458;52.220;9.884;2023-04-06T11:50:56;100946.34;;;14.61;35.35
16690;BME280;8458;52.220;9.884;2023-04-06T11:53:23;100957.75;;;14.55;35.10
16690;BME280;8458;52.220;9.884;2023-04-06T11:55:50;100952.75;;;14.51;35.07
16690;BME280;8458;52.220;9.884;2023-04-06T11:58:16;100946.88;;;14.63;35.51
16690;BME280;8458;52.220;9.884;2023-04-06T12:00:43;100940.13;;;14.75;36.10
16690;BME280;8458;52.220;9.884;2023-04-06T12:03:10;100937.00;;;14.86;36.44
16690;BME280;8458;52.220;9.884;2023-04-06T12:05:38;100940.03;;;14.95;35.66
16690;BME280;8458;52.220;9.884;2023-04-06T12:08:05;100933.06;;;14.93;35.48
16690;BME280;8458;52.220;9.884;2023-04-06T12:10:32;100933.00;;;14.98;35.46
16690;BME280;8458;52.220;9.884;2023-04-06T12:12:59;100927.69;;;15.01;34.65
16690;BME280;8458;52.220;9.884;2023-04-06T12:15:26;100929.94;;;14.99;35.38
16690;BME280;8458;52.220;9.884;2023-04-06T12:17:52;100915.69;;;15.01;34.41
16690;BME280;8458;52.220;9.884;2023-04-06T12:20:19;100917.34;;;15.02;35.72
16690;BME280;8458;52.220;9.884;2023-04-06T12:22:46;100922.88;;;15.12;35.13
16690;BME280;8458;52.220;9.884;2023-04-06T12:25:13;100927.94;;;15.05;35.36
16690;BME280;8458;52.220;9.884;2023-04-06T12:27:39;100928.97;;;15.19;35.47
16690;BME280;8458;52.220;9.884;2023-04-06T12:30:07;100920.47;;;15.35;35.12
16690;BME280;8458;52.220;9.884;2023-04-06T12:32:34;100919.81;;;15.48;35.53
16690;BME280;8458;52.220;9.884;2023-04-06T12:35:01;100914.16;;;15.53;35.29
16690;BME280;8458;52.220;9.884;2023-04-06T12:37:27;100906.88;;;15.57;35.87
16690;BME280;8458;52.220;9.884;2023-04-06T12:39:55;100905.84;;;15.48;35.70
16690;BME280;8458;52.220;9.884;2023-04-06T12:42:22;100909.38;;;15.59;35.63
16690;BME280;8458;52.220;9.884;2023-04-06T12:44:48;100909.38;;;15.59;35.47
16690;BME280;8458;52.220;9.884;2023-04-06T12:47:15;100898.94;;;15.70;35.78
16690;BME280;8458;52.220;9.884;2023-04-06T12:49:42;100901.69;;;15.75;34.97
16690;BME280;8458;52.220;9.884;2023-04-06T12:52:09;100897.44;;;15.83;34.50
16690;BME280;8458;52.220;9.884;2023-04-06T12:54:35;100896.66;;;15.72;34.54
16690;BME280;8458;52.220;9.884;2023-04-06T12:57:03;100901.13;;;15.78;34.31
16690;BME280;8458;52.220;9.884;2023-04-06T12:59:30;100897.75;;;15.76;35.22
16690;BME280;8458;52.220;9.884;2023-04-06T13:02:00;100889.84;;;15.88;35.06
16690;BME280;8458;52.220;9.884;2023-04-06T13:04:27;100880.22;;;16.00;33.78
16690;BME280;8458;52.220;9.884;2023-04-06T13:06:53;100893.06;;;16.01;33.71
16690;BME280;8458;52.220;9.884;2023-04-06T13:09:20;100885.88;;;15.94;33.62